Terminal Aerodrome Forecast
Issued by NWS Cleveland, OH

Home | Current Version | Previous Version | Text Only | Print | Product List | Glossary Off
Versions: 1 2 3 4 5 6 7 8 9 10 11 12 13 14 15 16 17 18 19 20 21 22 23

000
FTUS41 KCLE 161900 AAA
TAFTOL
TAF AMD
KTOL 161952Z 1620/1718 18010G15KT P6SM VCSH OVC035
      TEMPO 1620/1621 3SM -SHRA BKN015 OVC025
     FM162100 17007KT P6SM OVC015
     FM170000 20005KT P6SM OVC015
     FM170900 29005KT P6SM SKC=

USA.gov is the U.S. government's official web portal to all federal, state and local government web resources and services.